sim
Sign-in with your pilot id or email,
or register
Callsign
Passwort

Schedule Details

Flight Number: DLH1687
Departure: Debrecen International Airport (LHDC) at 12:20
Arrival: Munich Airport (EDDM) at 13:55
Route: Lufthansa Passenger Schedule. Enter filed route here before submitting Pirep.

Weather Information
Getting current METAR information for LHDC 282015Z AUTO 00000KT CAVOK 13/12 Q1012
Getting current METAR information for EDDM 282020Z VRB02KT CAVOK 09/07 Q1015 NOSIG

Schedule Frequency

Route Map